createdAt,value
2018-08-20T00:00:05.944Z,22.39
2018-08-20T00:01:05.875Z,22.43
2018-08-20T00:02:05.804Z,22.41
2018-08-20T00:03:05.740Z,22.36
2018-08-20T00:04:05.660Z,22.32
2018-08-20T00:05:05.589Z,22.30
2018-08-20T00:06:05.515Z,22.29
2018-08-20T00:07:05.444Z,22.32
2018-08-20T00:08:05.373Z,22.32
2018-08-20T00:09:05.304Z,22.32
2018-08-20T00:10:05.229Z,22.32
2018-08-20T00:11:05.161Z,22.38
2018-08-20T00:12:05.088Z,22.36
2018-08-20T00:13:05.044Z,22.39
2018-08-20T00:14:04.946Z,22.36
2018-08-20T00:15:04.878Z,22.43
2018-08-20T00:16:04.802Z,22.33
2018-08-20T00:17:04.732Z,22.44
2018-08-20T00:18:04.657Z,22.41
2018-08-20T00:19:04.588Z,22.44
2018-08-20T00:20:04.516Z,22.43
2018-08-20T00:21:04.446Z,22.36
2018-08-20T00:22:04.380Z,22.45
2018-08-20T00:23:04.300Z,22.43
2018-08-20T00:24:04.232Z,22.35
2018-08-20T00:25:04.161Z,22.39
2018-08-20T00:26:04.089Z,22.33
2018-08-20T00:27:04.017Z,22.30
2018-08-20T00:28:03.949Z,22.33
2018-08-20T00:29:03.875Z,22.26
2018-08-20T00:30:03.803Z,22.20
2018-08-20T00:31:03.734Z,22.11
2018-08-20T00:32:03.659Z,22.10
2018-08-20T00:33:03.591Z,22.11
2018-08-20T00:34:03.518Z,22.15
2018-08-20T00:35:03.446Z,22.08
2018-08-20T00:36:03.374Z,21.93
2018-08-20T00:37:03.304Z,21.88
2018-08-20T00:38:03.237Z,21.91
2018-08-20T00:39:03.159Z,21.83
2018-08-20T00:40:03.088Z,21.82
2018-08-20T00:41:03.017Z,21.85
2018-08-20T00:42:02.949Z,21.80
2018-08-20T00:43:02.874Z,21.80
2018-08-20T00:44:02.802Z,21.82
2018-08-20T00:45:02.732Z,21.72
2018-08-20T00:46:02.657Z,21.76
2018-08-20T00:47:02.587Z,21.79
2018-08-20T00:48:02.514Z,21.77
2018-08-20T00:49:02.443Z,21.82
2018-08-20T00:50:02.376Z,21.80
2018-08-20T00:51:02.307Z,21.85
2018-08-20T00:52:02.231Z,21.82
2018-08-20T00:53:02.159Z,21.82
2018-08-20T00:54:02.086Z,21.79
2018-08-20T00:55:02.016Z,21.95
2018-08-20T00:56:01.947Z,21.83
2018-08-20T00:57:01.883Z,21.76
2018-08-20T00:58:01.798Z,21.80
2018-08-20T00:59:01.726Z,21.80
2018-08-20T01:00:01.660Z,21.79
2018-08-20T01:01:01.588Z,21.80
2018-08-20T01:02:01.517Z,21.80
2018-08-20T01:03:01.469Z,21.82
2018-08-20T01:04:01.371Z,21.76
2018-08-20T01:05:01.304Z,21.83
2018-08-20T01:06:01.228Z,21.75
2018-08-20T01:07:01.155Z,21.72
2018-08-20T01:08:01.083Z,21.72
2018-08-20T01:09:01.014Z,21.73
2018-08-20T01:10:00.937Z,21.70
2018-08-20T01:11:00.865Z,21.61
2018-08-20T01:12:00.793Z,21.62
2018-08-20T01:13:00.724Z,21.69
2018-08-20T01:14:00.650Z,21.57
2018-08-20T01:15:00.583Z,21.64
2018-08-20T01:16:00.508Z,21.72
2018-08-20T01:17:00.434Z,21.64
2018-08-20T01:18:00.363Z,21.62
2018-08-20T01:19:00.292Z,21.58
2018-08-20T01:20:00.224Z,21.62
2018-08-20T01:21:00.149Z,21.61
2018-08-20T01:22:00.075Z,21.51
2018-08-20T01:23:00.005Z,21.58
2018-08-20T01:23:59.932Z,21.50
2018-08-20T01:24:59.864Z,21.51
2018-08-20T01:25:59.790Z,21.45
2018-08-20T01:26:59.715Z,21.43
2018-08-20T01:27:59.644Z,21.43
2018-08-20T01:28:59.576Z,21.37
2018-08-20T01:29:59.501Z,21.33
2018-08-20T01:30:59.427Z,21.37
2018-08-20T01:31:59.360Z,21.39
2018-08-20T01:32:59.284Z,21.40
2018-08-20T01:33:59.212Z,21.35
2018-08-20T01:34:59.141Z,21.43
2018-08-20T01:35:59.078Z,21.37
2018-08-20T01:36:58.998Z,21.27
2018-08-20T01:37:58.924Z,21.25
2018-08-20T01:38:58.869Z,21.25
2018-08-20T01:39:58.781Z,21.30
2018-08-20T01:40:58.710Z,21.25
2018-08-20T01:41:58.637Z,21.24
2018-08-20T01:42:58.562Z,21.24
2018-08-20T01:43:58.494Z,21.29
2018-08-20T01:44:58.422Z,21.25
2018-08-20T01:45:58.348Z,21.32
2018-08-20T01:46:58.284Z,21.27
2018-08-20T01:47:58.203Z,21.27
2018-08-20T01:48:58.132Z,21.24
2018-08-20T01:49:58.060Z,21.24
2018-08-20T01:50:57.987Z,21.15
2018-08-20T01:51:57.916Z,21.07
2018-08-20T01:52:57.844Z,21.17
2018-08-20T01:53:57.773Z,21.14
2018-08-20T01:54:57.704Z,21.03
2018-08-20T01:55:57.626Z,21.06
2018-08-20T01:56:57.557Z,21.02
2018-08-20T01:57:57.488Z,21.06
2018-08-20T01:58:57.410Z,21.12
2018-08-20T01:59:57.344Z,21.07
2018-08-20T02:00:57.275Z,21.09
2018-08-20T02:01:57.194Z,21.09
2018-08-20T02:02:57.121Z,20.93
2018-08-20T02:03:57.050Z,20.97
2018-08-20T02:04:56.977Z,20.97
2018-08-20T02:05:56.908Z,20.77
2018-08-20T02:06:56.833Z,20.85
2018-08-20T02:07:56.759Z,20.78
2018-08-20T02:08:56.686Z,20.74
2018-08-20T02:09:56.618Z,20.75
2018-08-20T02:10:56.545Z,20.74
2018-08-20T02:11:56.473Z,20.85
2018-08-20T02:12:56.400Z,20.77
2018-08-20T02:13:56.326Z,20.80
2018-08-20T02:14:56.253Z,20.78
2018-08-20T02:15:56.184Z,20.70
2018-08-20T02:16:56.113Z,20.81
2018-08-20T02:17:56.041Z,20.66
2018-08-20T02:18:55.966Z,20.74
2018-08-20T02:19:55.894Z,20.77
2018-08-20T02:20:55.822Z,20.66
2018-08-20T02:21:55.748Z,20.78
2018-08-20T02:22:55.675Z,20.70
2018-08-20T02:23:55.602Z,20.77
2018-08-20T02:24:55.530Z,20.70
2018-08-20T02:25:55.458Z,20.70
2018-08-20T02:26:55.385Z,20.77
2018-08-20T02:27:55.315Z,20.69
2018-08-20T02:28:55.241Z,20.70
2018-08-20T02:29:55.169Z,20.72
2018-08-20T02:30:55.097Z,20.72
2018-08-20T02:31:55.044Z,20.74
2018-08-20T02:32:54.952Z,20.74
2018-08-20T02:33:54.880Z,20.84
2018-08-20T02:34:54.806Z,20.72
2018-08-20T02:35:54.734Z,20.69
2018-08-20T02:36:54.662Z,20.67
2018-08-20T02:37:54.587Z,20.75
2018-08-20T02:38:54.516Z,20.69
2018-08-20T02:39:54.451Z,20.66
2018-08-20T02:40:54.369Z,20.65
2018-08-20T02:41:54.302Z,20.69
2018-08-20T02:42:54.227Z,20.66
2018-08-20T02:43:54.154Z,20.60
2018-08-20T02:44:54.081Z,20.55
2018-08-20T02:45:54.013Z,20.59
2018-08-20T02:46:53.938Z,20.59
2018-08-20T02:47:53.865Z,20.56
2018-08-20T02:48:53.790Z,20.60
2018-08-20T02:49:53.717Z,20.52
2018-08-20T02:50:53.648Z,20.48
2018-08-20T02:51:53.578Z,20.51
2018-08-20T02:52:53.499Z,20.56
2018-08-20T02:53:53.430Z,20.59
2018-08-20T02:54:53.355Z,20.60
2018-08-20T02:55:53.283Z,20.59
2018-08-20T02:56:53.214Z,20.62
2018-08-20T02:57:53.136Z,20.62
2018-08-20T02:58:53.068Z,20.62
2018-08-20T02:59:53.000Z,20.70
2018-08-20T03:00:52.920Z,20.72
2018-08-20T03:01:52.848Z,20.67
2018-08-20T03:02:52.780Z,20.72
2018-08-20T03:03:52.705Z,20.66
2018-08-20T03:04:52.637Z,20.60
2018-08-20T03:05:52.568Z,20.59
2018-08-20T03:06:52.485Z,20.60
2018-08-20T03:07:52.410Z,20.58
2018-08-20T03:08:52.344Z,20.58
2018-08-20T03:09:52.265Z,20.52
2018-08-20T03:10:52.197Z,20.50
2018-08-20T03:11:52.121Z,20.48
2018-08-20T03:12:52.048Z,20.50
2018-08-20T03:13:51.974Z,20.51
2018-08-20T03:14:51.904Z,20.48
2018-08-20T03:15:51.831Z,20.51
2018-08-20T03:16:51.767Z,20.48
2018-08-20T03:17:51.685Z,20.44
2018-08-20T03:18:51.611Z,20.47
2018-08-20T03:19:51.539Z,20.34
2018-08-20T03:20:51.471Z,20.31
2018-08-20T03:21:51.397Z,20.32
2018-08-20T03:22:51.322Z,20.29
2018-08-20T03:23:51.247Z,20.36
2018-08-20T03:24:51.179Z,20.43
2018-08-20T03:25:51.105Z,20.37
2018-08-20T03:26:51.031Z,20.37
2018-08-20T03:27:50.960Z,20.43
2018-08-20T03:28:50.888Z,20.36
2018-08-20T03:29:50.813Z,20.36
2018-08-20T03:30:50.746Z,20.39
2018-08-20T03:31:50.670Z,20.40
2018-08-20T03:32:50.596Z,20.34
2018-08-20T03:33:50.521Z,20.24
2018-08-20T03:34:50.451Z,20.21
2018-08-20T03:35:50.382Z,20.29
2018-08-20T03:36:50.305Z,20.25
2018-08-20T03:37:50.233Z,20.26
2018-08-20T03:38:50.158Z,20.25
2018-08-20T03:39:50.089Z,20.26
2018-08-20T03:40:50.015Z,20.24
2018-08-20T03:41:49.939Z,20.18
2018-08-20T03:42:49.867Z,20.37
2018-08-20T03:43:49.794Z,20.28
2018-08-20T03:44:49.726Z,20.28
2018-08-20T03:45:49.650Z,20.24
2018-08-20T03:46:49.576Z,20.36
2018-08-20T03:47:49.504Z,20.32
2018-08-20T03:48:49.437Z,20.36
2018-08-20T03:49:49.359Z,20.37
2018-08-20T03:50:49.287Z,20.34
2018-08-20T03:51:49.213Z,20.39
2018-08-20T03:52:49.140Z,20.37
2018-08-20T03:53:49.066Z,20.22
2018-08-20T03:54:48.994Z,20.26
2018-08-20T03:55:48.920Z,20.21
2018-08-20T03:56:48.852Z,20.36
2018-08-20T03:57:48.777Z,20.25
2018-08-20T03:58:48.701Z,20.22
2018-08-20T03:59:48.629Z,20.22
2018-08-20T04:00:48.556Z,20.37
2018-08-20T04:01:48.482Z,20.21
2018-08-20T04:02:48.412Z,20.22
2018-08-20T04:03:48.339Z,20.26
2018-08-20T04:04:48.265Z,20.29
2018-08-20T04:05:48.197Z,20.29
2018-08-20T04:06:48.121Z,20.26
2018-08-20T04:07:48.047Z,20.21
2018-08-20T04:08:47.973Z,20.19
2018-08-20T04:09:47.901Z,20.19
2018-08-20T04:10:47.832Z,20.28
2018-08-20T04:11:47.757Z,20.19
2018-08-20T04:12:47.684Z,20.19
2018-08-20T04:13:47.607Z,20.22
2018-08-20T04:14:47.537Z,20.18
2018-08-20T04:15:47.468Z,20.26
2018-08-20T04:16:47.392Z,20.18
2018-08-20T04:17:47.318Z,20.19
2018-08-20T04:18:47.246Z,20.21
2018-08-20T04:19:47.182Z,20.26
2018-08-20T04:20:47.100Z,20.25
2018-08-20T04:21:47.026Z,20.10
2018-08-20T04:22:46.952Z,20.09
2018-08-20T04:23:46.894Z,20.13
2018-08-20T04:24:46.822Z,20.14
2018-08-20T04:25:46.733Z,20.19
2018-08-20T04:26:46.665Z,20.06
2018-08-20T04:27:46.588Z,20.04
2018-08-20T04:28:46.516Z,20.03
2018-08-20T04:29:46.450Z,20.10
2018-08-20T04:30:46.417Z,20.13
2018-08-20T04:31:46.303Z,20.14
2018-08-20T04:32:46.225Z,20.11
2018-08-20T04:33:46.149Z,20.14
2018-08-20T04:34:46.080Z,20.18
2018-08-20T04:35:46.004Z,20.14
2018-08-20T04:36:45.933Z,20.06
2018-08-20T04:37:45.859Z,20.03
2018-08-20T04:38:45.787Z,20.16
2018-08-20T04:39:45.714Z,20.09
2018-08-20T04:40:45.640Z,20.13
2018-08-20T04:41:45.572Z,20.14
2018-08-20T04:42:45.498Z,20.10
2018-08-20T04:43:45.424Z,20.11
2018-08-20T04:44:45.352Z,20.07
2018-08-20T04:45:45.276Z,20.09
2018-08-20T04:46:45.202Z,20.11
2018-08-20T04:47:45.131Z,20.11
2018-08-20T04:48:45.064Z,20.14
2018-08-20T04:49:45.006Z,20.18
2018-08-20T04:50:45.011Z,20.10
2018-08-20T04:51:44.840Z,20.14
2018-08-20T04:52:44.770Z,20.18
2018-08-20T04:53:44.692Z,20.18
2018-08-20T04:54:44.622Z,20.14
2018-08-20T04:55:44.547Z,20.14
2018-08-20T04:56:44.475Z,20.18
2018-08-20T04:57:44.399Z,20.18
2018-08-20T04:58:44.328Z,20.21
2018-08-20T04:59:44.257Z,20.10
2018-08-20T05:00:44.183Z,20.13
2018-08-20T05:01:44.114Z,20.18
2018-08-20T05:02:44.039Z,20.16
2018-08-20T05:03:43.966Z,20.31
2018-08-20T05:04:43.891Z,20.14
2018-08-20T05:05:43.820Z,20.21
2018-08-20T05:06:43.748Z,20.24
2018-08-20T05:07:43.673Z,20.28
2018-08-20T05:08:43.604Z,20.32
2018-08-20T05:09:43.534Z,20.25
2018-08-20T05:10:43.456Z,20.25
2018-08-20T05:11:43.385Z,20.32
2018-08-20T05:12:43.312Z,20.39
2018-08-20T05:13:43.238Z,20.37
2018-08-20T05:14:43.169Z,20.31
2018-08-20T05:15:43.090Z,20.40
2018-08-20T05:16:43.020Z,20.37
2018-08-20T05:17:42.946Z,20.37
2018-08-20T05:18:42.886Z,20.39
2018-08-20T05:19:42.798Z,20.40
2018-08-20T05:20:42.728Z,20.43
2018-08-20T05:21:42.655Z,20.37
2018-08-20T05:22:42.582Z,20.44
2018-08-20T05:23:42.512Z,20.50
2018-08-20T05:24:42.446Z,20.50
2018-08-20T05:25:42.365Z,20.41
2018-08-20T05:26:42.293Z,20.51
2018-08-20T05:27:42.216Z,20.44
2018-08-20T05:28:42.143Z,20.55
2018-08-20T05:29:42.076Z,20.56
2018-08-20T05:30:42.000Z,20.51
2018-08-20T05:31:41.943Z,20.58
2018-08-20T05:32:41.859Z,20.56
2018-08-20T05:33:41.783Z,20.50
2018-08-20T05:34:41.712Z,20.51
2018-08-20T05:35:41.640Z,20.50
2018-08-20T05:36:41.562Z,20.55
2018-08-20T05:37:41.491Z,20.55
2018-08-20T05:38:41.420Z,20.51
2018-08-20T05:39:41.347Z,20.58
2018-08-20T05:40:41.283Z,20.55
2018-08-20T05:41:41.203Z,20.56
2018-08-20T05:42:41.131Z,20.56
2018-08-20T05:43:41.053Z,20.50
2018-08-20T05:44:41.002Z,20.48
2018-08-20T05:45:40.949Z,20.55
2018-08-20T05:46:40.837Z,20.55
2018-08-20T05:47:40.763Z,20.62
2018-08-20T05:48:40.697Z,20.67
2018-08-20T05:49:40.616Z,20.74
2018-08-20T05:50:40.548Z,20.80
2018-08-20T05:51:40.488Z,20.77
2018-08-20T05:52:40.449Z,20.77
2018-08-20T05:53:40.329Z,20.77
2018-08-20T05:54:40.255Z,20.82
2018-08-20T05:55:40.185Z,20.77
2018-08-20T05:56:40.111Z,20.88
2018-08-20T05:57:40.040Z,20.85
2018-08-20T05:58:39.971Z,20.97
2018-08-20T05:59:39.893Z,21.03
2018-08-20T06:00:39.825Z,21.05
2018-08-20T06:01:39.749Z,21.14
2018-08-20T06:02:39.675Z,21.18
2018-08-20T06:03:39.604Z,21.21
2018-08-20T06:04:39.534Z,21.24
2018-08-20T06:05:39.457Z,21.29
2018-08-20T06:06:39.389Z,21.42
2018-08-20T06:07:39.325Z,21.33
2018-08-20T06:08:39.243Z,21.51
2018-08-20T06:09:39.171Z,21.43
2018-08-20T06:10:39.109Z,21.51
2018-08-20T06:11:39.028Z,21.51
2018-08-20T06:12:38.955Z,21.61
2018-08-20T06:13:38.901Z,21.57
2018-08-20T06:14:38.822Z,21.67
2018-08-20T06:15:38.744Z,21.70
2018-08-20T06:16:38.667Z,21.76
2018-08-20T06:17:38.592Z,21.82
2018-08-20T06:18:38.538Z,21.88
2018-08-20T06:19:38.449Z,21.85
2018-08-20T06:20:38.382Z,21.91
2018-08-20T06:21:38.314Z,21.99
2018-08-20T06:22:38.329Z,21.99
2018-08-20T06:23:38.164Z,22.08
2018-08-20T06:24:38.099Z,22.11
2018-08-20T06:25:38.019Z,22.14
2018-08-20T06:26:37.948Z,22.20
2018-08-20T06:27:37.880Z,22.25
2018-08-20T06:28:37.863Z,22.38
2018-08-20T06:29:37.738Z,22.50
2018-08-20T06:30:37.665Z,22.51
2018-08-20T06:31:37.611Z,22.57
2018-08-20T06:32:37.542Z,22.66
2018-08-20T06:33:37.446Z,22.75
2018-08-20T06:34:37.375Z,22.83
2018-08-20T06:35:37.327Z,22.73
2018-08-20T06:36:37.231Z,22.84
2018-08-20T06:37:37.160Z,22.88
2018-08-20T06:38:37.088Z,22.94
2018-08-20T06:39:37.018Z,22.90
2018-08-20T06:40:36.948Z,23.03
2018-08-20T06:41:36.936Z,23.06
2018-08-20T06:42:36.807Z,23.09
2018-08-20T06:43:36.735Z,23.12
2018-08-20T06:44:36.669Z,23.18
2018-08-20T06:45:36.597Z,23.17
2018-08-20T06:46:36.519Z,23.27
2018-08-20T06:47:36.450Z,23.37
2018-08-20T06:48:36.403Z,23.39
2018-08-20T06:49:36.308Z,23.28
2018-08-20T06:50:36.234Z,23.44
2018-08-20T06:51:36.164Z,23.37
2018-08-20T06:52:36.096Z,23.34
2018-08-20T06:53:36.022Z,23.39
2018-08-20T06:54:35.972Z,23.44
2018-08-20T06:55:36.952Z,23.48
2018-08-20T06:56:35.808Z,23.48
2018-08-20T06:57:35.736Z,23.56
2018-08-20T06:58:35.670Z,23.47
2018-08-20T06:59:35.596Z,23.51
2018-08-20T07:00:35.525Z,23.58
2018-08-20T07:01:35.455Z,23.63
2018-08-20T07:02:35.382Z,23.68
2018-08-20T07:03:35.314Z,23.69
2018-08-20T07:04:35.244Z,23.80
2018-08-20T07:05:35.172Z,23.81
2018-08-20T07:06:35.110Z,23.86
2018-08-20T07:07:35.030Z,23.80
2018-08-20T07:08:34.964Z,23.92
2018-08-20T07:09:34.900Z,23.99
2018-08-20T07:10:34.823Z,24.03
2018-08-20T07:11:34.763Z,24.01
2018-08-20T07:12:34.754Z,24.01
2018-08-20T07:13:34.672Z,23.99
2018-08-20T07:14:34.615Z,23.98
2018-08-20T07:15:34.524Z,24.05
2018-08-20T07:16:34.480Z,24.14
2018-08-20T07:17:34.421Z,24.21
2018-08-20T07:18:34.291Z,24.10
2018-08-20T07:19:34.293Z,24.30
2018-08-20T07:20:34.118Z,24.30
2018-08-20T07:21:34.103Z,24.35
2018-08-20T07:22:34.030Z,24.51
2018-08-20T07:23:34.132Z,24.53
2018-08-20T07:24:33.919Z,24.57
2018-08-20T07:25:33.831Z,24.58
2018-08-20T07:26:33.779Z,24.65
2018-08-20T07:27:33.712Z,24.65
2018-08-20T07:28:33.626Z,24.69
2018-08-20T07:29:33.560Z,24.68
2018-08-20T07:30:33.481Z,24.69
2018-08-20T07:31:33.405Z,24.66
2018-08-20T07:32:33.331Z,24.66
2018-08-20T07:33:33.299Z,24.68
2018-08-20T07:34:33.192Z,24.63
2018-08-20T07:35:33.130Z,24.78
2018-08-20T07:36:33.066Z,24.76
2018-08-20T07:37:32.990Z,24.74
2018-08-20T07:38:32.937Z,24.73
2018-08-20T07:39:32.838Z,24.84
2018-08-20T07:40:32.782Z,24.86
2018-08-20T07:41:32.724Z,24.88
2018-08-20T07:42:33.642Z,24.88
2018-08-20T07:43:32.576Z,24.84
2018-08-20T07:44:32.518Z,24.93
2018-08-20T07:45:32.423Z,24.93
2018-08-20T07:46:32.298Z,25.01
2018-08-20T07:47:32.286Z,25.04
2018-08-20T07:48:32.207Z,24.98
2018-08-20T07:49:32.802Z,25.08
2018-08-20T07:50:32.064Z,25.08
2018-08-20T07:51:33.017Z,25.22
2018-08-20T07:52:31.924Z,25.21
2018-08-20T07:53:31.857Z,25.22
2018-08-20T07:54:31.800Z,25.25
2018-08-20T07:55:31.753Z,25.16
2018-08-20T07:56:33.321Z,25.16
2018-08-20T07:57:31.578Z,25.26
2018-08-20T07:58:31.452Z,25.23
2018-08-20T07:59:31.375Z,25.23
2018-08-20T08:00:31.304Z,25.26
2018-08-20T08:01:31.238Z,25.29
2018-08-20T08:02:31.179Z,25.29
2018-08-20T08:03:31.119Z,25.26
2018-08-20T08:04:31.069Z,25.28
2018-08-20T08:05:30.959Z,25.28
2018-08-20T08:06:30.902Z,25.33
2018-08-20T08:07:30.823Z,25.38
2018-08-20T08:08:30.750Z,25.43
2018-08-20T08:09:30.676Z,25.44
2018-08-20T08:10:30.608Z,25.50
2018-08-20T08:11:30.541Z,25.58
2018-08-20T08:12:30.466Z,25.59
2018-08-20T08:13:30.398Z,25.62
2018-08-20T08:14:30.330Z,25.73
2018-08-20T08:15:30.267Z,25.83
2018-08-20T08:16:30.189Z,25.93
2018-08-20T08:17:30.123Z,25.88
2018-08-20T08:18:30.051Z,25.96
2018-08-20T08:19:29.984Z,26.00
2018-08-20T08:20:29.912Z,25.99
2018-08-20T08:21:29.843Z,26.07
2018-08-20T08:22:29.777Z,26.05
2018-08-20T08:23:29.708Z,26.07
2018-08-20T08:24:29.632Z,26.16
2018-08-20T08:25:29.565Z,26.05
2018-08-20T08:26:29.551Z,26.22
2018-08-20T08:27:29.431Z,26.22
2018-08-20T08:28:29.354Z,26.22
2018-08-20T08:29:29.290Z,26.18
2018-08-20T08:30:29.218Z,26.23
2018-08-20T08:31:29.158Z,26.19
2018-08-20T08:32:29.082Z,26.21
2018-08-20T08:33:29.007Z,26.31
2018-08-20T08:34:28.942Z,26.26
2018-08-20T08:35:28.873Z,26.38
2018-08-20T08:36:28.805Z,26.40
2018-08-20T08:37:28.736Z,26.48
2018-08-20T08:38:28.663Z,26.44
2018-08-20T08:39:28.593Z,26.47
2018-08-20T08:40:28.527Z,26.48
2018-08-20T08:41:28.455Z,26.56
2018-08-20T08:42:28.385Z,26.55
2018-08-20T08:43:28.315Z,26.58
2018-08-20T08:44:28.245Z,26.62
2018-08-20T08:45:28.176Z,26.70
2018-08-20T08:46:28.109Z,26.78
2018-08-20T08:47:28.041Z,26.80
2018-08-20T08:48:27.970Z,26.84
2018-08-20T08:49:27.903Z,26.85
2018-08-20T08:50:27.834Z,26.83
2018-08-20T08:51:27.761Z,26.92
2018-08-20T08:52:27.698Z,26.95
2018-08-20T08:53:27.636Z,27.02
2018-08-20T08:54:27.558Z,27.08
2018-08-20T08:55:27.486Z,27.18
2018-08-20T08:56:27.434Z,27.21
2018-08-20T08:57:27.360Z,27.25
2018-08-20T08:58:27.281Z,27.25
2018-08-20T08:59:27.220Z,27.32
2018-08-20T09:00:27.220Z,27.26
2018-08-20T09:01:27.078Z,27.35
2018-08-20T09:02:27.011Z,27.30
2018-08-20T09:03:26.936Z,27.40
2018-08-20T09:04:26.870Z,27.51
2018-08-20T09:05:26.802Z,27.45
2018-08-20T09:06:26.731Z,27.52
2018-08-20T09:07:26.689Z,27.54
2018-08-20T09:08:26.598Z,27.51
2018-08-20T09:09:26.525Z,27.49
2018-08-20T09:10:26.492Z,27.54
2018-08-20T09:11:26.386Z,27.60
2018-08-20T09:12:26.328Z,27.55
2018-08-20T09:13:26.256Z,27.59
2018-08-20T09:14:26.184Z,27.60
2018-08-20T09:15:26.114Z,27.51
2018-08-20T09:16:26.051Z,27.52
2018-08-20T09:17:25.978Z,27.59
2018-08-20T09:18:25.910Z,27.65
2018-08-20T09:19:25.845Z,27.60
2018-08-20T09:20:25.773Z,27.65
2018-08-20T09:21:25.701Z,27.67
2018-08-20T09:22:25.635Z,27.65
2018-08-20T09:23:25.567Z,27.70
2018-08-20T09:24:25.511Z,27.70
2018-08-20T09:25:32.648Z,27.71
2018-08-20T09:27:29.309Z,27.73
2018-08-20T09:28:29.190Z,27.73
2018-08-20T09:29:29.124Z,27.80
2018-08-20T09:30:29.054Z,27.83
2018-08-20T09:31:28.984Z,27.85
2018-08-20T09:32:28.918Z,27.93
2018-08-20T09:33:28.848Z,27.93
2018-08-20T09:34:28.780Z,27.87
2018-08-20T09:35:28.712Z,27.89
2018-08-20T09:36:28.650Z,27.90
2018-08-20T09:37:28.576Z,27.89
2018-08-20T09:38:28.508Z,27.92
2018-08-20T09:39:28.447Z,27.93
2018-08-20T09:40:28.371Z,27.96
2018-08-20T09:41:28.303Z,27.92
2018-08-20T09:42:28.234Z,28.02
2018-08-20T09:43:28.172Z,28.07
2018-08-20T09:44:28.100Z,28.02
2018-08-20T09:45:28.036Z,28.04
2018-08-20T09:46:27.961Z,28.05
2018-08-20T09:47:27.895Z,28.10
2018-08-20T09:48:27.826Z,28.14
2018-08-20T09:49:27.758Z,28.23
2018-08-20T09:50:27.688Z,28.22
2018-08-20T09:51:27.621Z,28.19
2018-08-20T09:52:27.552Z,28.15
2018-08-20T09:53:27.494Z,28.15
2018-08-20T09:54:27.416Z,28.17
2018-08-20T09:55:27.350Z,28.19
2018-08-20T09:56:27.287Z,28.22
2018-08-20T09:57:27.215Z,28.19
2018-08-20T09:58:27.145Z,28.33
2018-08-20T09:59:27.081Z,28.29
2018-08-20T10:00:27.010Z,28.22
2018-08-20T10:01:26.942Z,28.38
2018-08-20T10:02:26.880Z,28.42
2018-08-20T10:03:26.805Z,28.42
2018-08-20T10:04:26.743Z,28.42
2018-08-20T10:05:26.678Z,28.49
2018-08-20T10:06:26.603Z,28.45
2018-08-20T10:07:26.586Z,28.44
2018-08-20T10:08:26.465Z,28.49
2018-08-20T10:09:26.397Z,28.48
2018-08-20T10:10:26.328Z,28.66
2018-08-20T10:11:26.261Z,28.62
2018-08-20T10:12:26.193Z,28.70
2018-08-20T10:13:26.126Z,28.78
2018-08-20T10:14:26.063Z,28.79
2018-08-20T10:15:25.998Z,28.88
2018-08-20T10:16:25.924Z,28.86
2018-08-20T10:17:25.858Z,28.84
2018-08-20T10:18:25.810Z,28.88
2018-08-20T10:19:25.722Z,28.88
2018-08-20T10:20:25.652Z,28.96
2018-08-20T10:21:25.585Z,29.04
2018-08-20T10:22:25.519Z,29.10
2018-08-20T10:23:25.450Z,29.08
2018-08-20T10:24:25.382Z,29.08
2018-08-20T10:25:25.318Z,29.02
2018-08-20T10:26:25.247Z,29.04
2018-08-20T10:27:25.177Z,29.05
2018-08-20T10:28:25.114Z,29.13
2018-08-20T10:29:25.049Z,29.14
2018-08-20T10:30:24.976Z,29.27
2018-08-20T10:31:24.907Z,29.41
2018-08-20T10:32:24.845Z,29.49
2018-08-20T10:33:24.772Z,29.49
2018-08-20T10:34:24.707Z,29.42
2018-08-20T10:35:24.637Z,29.53
2018-08-20T10:36:24.573Z,29.50
2018-08-20T10:37:24.504Z,29.54
2018-08-20T10:38:24.437Z,29.75
2018-08-20T10:39:24.368Z,29.65
2018-08-20T10:40:24.300Z,29.75
2018-08-20T10:41:24.239Z,29.90
2018-08-20T10:42:24.167Z,29.82
2018-08-20T10:43:24.099Z,29.95
2018-08-20T10:44:24.036Z,30.05
2018-08-20T10:45:23.966Z,29.98
2018-08-20T10:46:23.899Z,29.91
2018-08-20T10:47:23.837Z,29.87
2018-08-20T10:48:23.767Z,29.73
2018-08-20T10:49:23.697Z,29.73
2018-08-20T10:50:23.634Z,29.68
2018-08-20T10:51:23.564Z,29.66
2018-08-20T10:52:23.496Z,29.68
2018-08-20T10:53:23.430Z,29.76
2018-08-20T10:54:23.367Z,29.72
2018-08-20T10:55:23.302Z,29.82
2018-08-20T10:56:23.309Z,29.94
2018-08-20T10:57:23.167Z,29.91
2018-08-20T10:58:23.096Z,29.87
2018-08-20T10:59:23.028Z,30.00
2018-08-20T11:00:22.962Z,30.06
2018-08-20T11:01:22.894Z,30.09
2018-08-20T11:02:22.831Z,30.13
2018-08-20T11:03:22.760Z,30.16
2018-08-20T11:04:22.694Z,30.19
2018-08-20T11:05:22.627Z,30.28
2018-08-20T11:06:22.560Z,30.30
2018-08-20T11:07:22.499Z,30.34
2018-08-20T11:08:22.429Z,30.44
2018-08-20T11:09:22.364Z,30.47
2018-08-20T11:10:22.293Z,30.57
2018-08-20T11:11:22.230Z,30.59
2018-08-20T11:12:22.165Z,30.77
2018-08-20T11:13:22.097Z,30.81
2018-08-20T11:14:22.032Z,30.80
2018-08-20T11:15:21.960Z,30.81
2018-08-20T11:16:21.897Z,30.87
2018-08-20T11:17:21.835Z,31.02
2018-08-20T11:18:21.830Z,30.88
2018-08-20T11:19:21.695Z,30.88
2018-08-20T11:20:21.631Z,30.83
2018-08-20T11:21:21.563Z,30.75
2018-08-20T11:22:21.498Z,30.65
2018-08-20T11:23:21.430Z,30.48
2018-08-20T11:24:21.366Z,30.51
2018-08-20T11:25:21.298Z,30.35
2018-08-20T11:26:21.235Z,30.43
2018-08-20T11:27:21.165Z,30.32
2018-08-20T11:28:21.098Z,30.55
2018-08-20T11:29:21.033Z,30.53
2018-08-20T11:30:21.069Z,30.48
2018-08-20T11:31:20.900Z,30.48
2018-08-20T11:32:20.834Z,30.53
2018-08-20T11:33:20.768Z,30.54
2018-08-20T11:34:20.701Z,30.68
2018-08-20T11:35:20.634Z,30.68
2018-08-20T11:36:20.569Z,30.77
2018-08-20T11:37:20.505Z,30.77
2018-08-20T11:38:20.435Z,30.77
2018-08-20T11:39:20.373Z,30.88
2018-08-20T11:40:20.304Z,31.02
2018-08-20T11:41:20.236Z,31.00
2018-08-20T11:42:20.170Z,31.06
2018-08-20T11:43:20.151Z,31.05
2018-08-20T11:44:20.042Z,31.18
2018-08-20T11:45:19.978Z,31.24
2018-08-20T11:46:19.908Z,31.25
2018-08-20T11:47:19.840Z,31.28
2018-08-20T11:48:19.772Z,31.27
2018-08-20T11:49:19.707Z,31.07
2018-08-20T11:50:19.641Z,31.14
2018-08-20T11:51:19.579Z,31.15
2018-08-20T11:52:19.512Z,31.21
2018-08-20T11:53:19.467Z,31.18
2018-08-20T11:54:19.378Z,31.21
2018-08-20T11:55:19.311Z,31.40
2018-08-20T11:56:19.248Z,31.37
2018-08-20T11:57:19.180Z,31.56
2018-08-20T11:58:19.117Z,31.62
2018-08-20T11:59:19.049Z,31.61
2018-08-20T12:00:18.979Z,31.69
2018-08-20T12:01:18.920Z,31.62
2018-08-20T12:02:18.850Z,31.77
2018-08-20T12:03:18.783Z,31.94
2018-08-20T12:04:18.717Z,31.92
2018-08-20T12:05:18.656Z,31.97
2018-08-20T12:06:18.588Z,32.04
2018-08-20T12:07:18.524Z,32.09
2018-08-20T12:08:18.455Z,32.07
2018-08-20T12:09:18.390Z,32.21
2018-08-20T12:10:18.328Z,32.34
2018-08-20T12:11:18.280Z,32.40
2018-08-20T12:12:18.194Z,32.30
2018-08-20T12:13:18.136Z,32.36
2018-08-20T12:14:18.064Z,32.38
2018-08-20T12:15:18.012Z,32.34
2018-08-20T12:16:17.945Z,32.41
2018-08-20T12:17:17.889Z,32.51
2018-08-20T12:18:17.811Z,32.51
2018-08-20T12:19:17.745Z,32.52
2018-08-20T12:20:17.683Z,32.48
2018-08-20T12:21:17.623Z,32.87
2018-08-20T12:22:17.567Z,33.39
2018-08-20T12:23:17.525Z,33.76
2018-08-20T12:24:17.437Z,34.20
2018-08-20T12:25:17.380Z,34.60
2018-08-20T12:26:17.317Z,35.10
2018-08-20T12:27:17.256Z,35.36
2018-08-20T12:28:17.205Z,35.85
2018-08-20T12:29:17.139Z,36.24
2018-08-20T12:30:17.080Z,36.40
2018-08-20T12:31:17.022Z,36.80
2018-08-20T12:32:16.963Z,37.23
2018-08-20T12:33:16.910Z,37.58
2018-08-20T12:34:16.863Z,37.82
2018-08-20T12:35:16.791Z,37.71
2018-08-20T12:36:16.735Z,37.84
2018-08-20T12:37:16.676Z,37.86
2018-08-20T12:38:16.621Z,37.93
2018-08-20T12:39:16.564Z,38.15
2018-08-20T12:40:16.576Z,38.49
2018-08-20T12:41:16.457Z,38.73
2018-08-20T12:42:16.398Z,39.02
2018-08-20T12:43:16.342Z,39.22
2018-08-20T12:44:16.288Z,39.29
2018-08-20T12:45:16.232Z,39.55
2018-08-20T12:46:16.180Z,39.44
2018-08-20T12:47:16.129Z,39.26
2018-08-20T12:48:16.070Z,39.17
2018-08-20T12:49:16.016Z,39.03
2018-08-20T12:50:15.961Z,39.21
2018-08-20T12:51:15.904Z,39.25
2018-08-20T12:52:15.849Z,39.21